Wake Forest, NC

7:05 AM EST on February 06, 2016 (GMT -0500)
The Preserve at Smith Creek | | Change Station
CLOSE
Current Station
Personal Weather Station
Location: Wake Forest, NC
Elevation: 456 ft
Nearby Weather Stations

Elev 456 ft 36.08 °N, 78.59 °W | Updated 4 minutes ago

Mostly Cloudy
Mostly Cloudy
26.7 °F
Feels Like 27 °F
N
0.0
Wind Variable Wind from North
Gusts 0.0 mph

Today
High -- | Low -- °F
--% Chance of Precip.
Yesterday
High -- | Low -- °F
Precip. -- in
Pressure 30.46 in
Visibility 10.0 miles
Clouds Mostly Cloudy 25000 ft
Windchill 27 °F
Dew Point 24 °F
Humidity 91%
Rainfall 0.00 in
Snow Depth Not available.
7:11 AM 5:45 PM
Waning Crescent, 6% visible
METAR KRDU 061151Z 00000KT 10SM BKN250 M03/M05 A3045 RMK AO2 SLP315 T10281050 11011 21033 51014 $
Pressure 30.46 in
Visibility 10.0 miles
Clouds Mostly Cloudy 25000 ft
Windchill 27 °F
Dew Point 24 °F
Humidity 91%
Rainfall 0.00 in
Snow Depth Not available.
7:11 AM 5:45 PM
Waning Crescent, 6% visible
METAR KRDU 061151Z 00000KT 10SM BKN250 M03/M05 A3045 RMK AO2 SLP315 T10281050 11011 21033 51014 $

10-Day Weather Forecast

Almanac

Astronomy

Feb. 06, 2016 Rise Set
Actual Time
Civil Twilight
Nautical Twilight
Astronomical Twilight
Moon
Length of Visible Light
Length of Day
Tomorrow will be .
, % of the Moon is Illuminated

Today's Extremes

State Highs State Lows

Community

WunderPhotos

Upload Photos

1,890,944 photos uploaded!

WunderBlog® & News

Nearby

Air Quality

  Air Quality AQ Index Pollutant
Not available.

Snow Depth

Station Depth Elevation

Earthquake Activity

City Distance Mag. Time & Date
Minimum magnitude displayed is 2.5.

Coastal Water Temperatures

Place Temperature

Stations

Nearby Weather Stations

Station Location Temp. Windchill Dew Point Humidity Wind Precip. Elev Updated Type
                   

Watches & Warnings

There are currently no watches in effect.